createdAt,value
2022-11-18T00:01:58.464Z,9.30
2022-11-18T00:04:34.804Z,9.30
2022-11-18T00:07:03.076Z,9.30
2022-11-18T00:09:37.914Z,9.30
2022-11-18T00:12:24.126Z,9.30
2022-11-18T00:15:00.751Z,9.30
2022-11-18T00:17:29.341Z,9.30
2022-11-18T00:20:03.832Z,9.30
2022-11-18T00:22:32.095Z,9.30
2022-11-18T00:25:06.924Z,9.30
2022-11-18T00:27:35.095Z,9.40
2022-11-18T00:30:12.747Z,9.30
2022-11-18T00:32:45.183Z,9.40
2022-11-18T00:35:19.833Z,9.40
2022-11-18T00:37:48.301Z,9.40
2022-11-18T00:40:23.758Z,9.40
2022-11-18T00:42:53.937Z,9.40
2022-11-18T00:45:31.981Z,9.40
2022-11-18T00:48:00.349Z,9.40
2022-11-18T00:50:34.990Z,9.40
2022-11-18T00:53:09.746Z,9.40
2022-11-18T00:55:38.084Z,9.40
2022-11-18T00:58:12.857Z,9.40
2022-11-18T01:00:43.146Z,9.40
2022-11-18T01:03:18.760Z,9.40
2022-11-18T01:05:53.940Z,9.40
2022-11-18T01:08:22.681Z,9.40
2022-11-18T01:10:59.351Z,9.40
2022-11-18T01:13:29.255Z,9.40
2022-11-18T01:16:05.880Z,9.40
2022-11-18T01:18:40.884Z,9.40
2022-11-18T01:21:15.870Z,9.30
2022-11-18T01:23:44.676Z,9.30
2022-11-18T01:26:15.233Z,9.30
2022-11-18T01:28:50.962Z,9.30
2022-11-18T01:31:27.753Z,9.30
2022-11-18T01:33:56.037Z,9.30
2022-11-18T01:36:33.847Z,9.30
2022-11-18T01:39:02.564Z,9.20
2022-11-18T01:41:31.097Z,9.20
2022-11-18T01:44:07.865Z,9.20
2022-11-18T01:46:37.797Z,9.20
2022-11-18T01:49:16.087Z,9.20
2022-11-18T01:51:59.444Z,9.20
2022-11-18T01:54:38.823Z,9.20
2022-11-18T01:57:12.430Z,9.20
2022-11-18T01:59:51.043Z,9.20
2022-11-18T02:02:29.057Z,9.10
2022-11-18T02:05:05.847Z,9.20
2022-11-18T02:07:43.950Z,9.20
2022-11-18T02:10:26.850Z,9.10
2022-11-18T02:12:56.736Z,9.20
2022-11-18T02:15:41.927Z,9.20
2022-11-18T02:18:25.934Z,9.20
2022-11-18T02:20:58.112Z,9.20
2022-11-18T02:24:17.899Z,9.20
2022-11-18T02:27:17.561Z,9.20
2022-11-18T02:30:00.876Z,9.20
2022-11-18T02:32:34.664Z,9.20
2022-11-18T02:35:14.864Z,9.10
2022-11-18T02:37:49.092Z,9.10
2022-11-18T02:40:29.882Z,9.20
2022-11-18T02:43:03.645Z,9.10
2022-11-18T02:45:41.103Z,9.10
2022-11-18T02:48:12.666Z,9.00
2022-11-18T02:50:48.938Z,9.00
2022-11-18T02:53:25.726Z,8.90
2022-11-18T02:56:01.869Z,9.00
2022-11-18T02:58:30.335Z,8.90
2022-11-18T03:01:08.968Z,8.90
2022-11-18T03:03:45.147Z,8.90
2022-11-18T03:06:26.270Z,8.90
2022-11-18T03:09:04.996Z,8.90
2022-11-18T03:11:41.924Z,8.80
2022-11-18T03:14:26.982Z,8.80
2022-11-18T03:17:07.984Z,8.80
2022-11-18T03:19:59.848Z,8.70
2022-11-18T03:22:39.212Z,8.70
2022-11-18T03:25:10.554Z,8.60
2022-11-18T03:27:50.978Z,8.60
2022-11-18T03:30:28.933Z,8.60
2022-11-18T03:33:04.119Z,8.50
2022-11-18T03:35:42.011Z,8.50
2022-11-18T03:38:14.751Z,8.50
2022-11-18T03:40:53.976Z,8.50
2022-11-18T03:43:27.238Z,8.40
2022-11-18T03:46:06.893Z,8.40
2022-11-18T03:48:49.982Z,8.40
2022-11-18T03:51:30.232Z,8.30
2022-11-18T03:54:19.938Z,8.30
2022-11-18T03:56:55.180Z,8.30
2022-11-18T03:59:35.128Z,8.20
2022-11-18T04:02:07.403Z,8.20
2022-11-18T04:04:45.210Z,8.20
2022-11-18T04:07:24.198Z,8.10
2022-11-18T04:10:04.072Z,8.10
2022-11-18T04:12:44.931Z,8.10
2022-11-18T04:15:20.989Z,8.10
2022-11-18T04:17:55.977Z,8.00
2022-11-18T04:20:32.922Z,8.00
2022-11-18T04:23:07.956Z,8.00
2022-11-18T04:25:37.206Z,8.00
2022-11-18T04:28:13.015Z,7.90
2022-11-18T04:30:41.215Z,7.90
2022-11-18T04:33:15.983Z,7.90
2022-11-18T04:35:48.253Z,7.90
2022-11-18T04:38:23.027Z,7.80
2022-11-18T04:40:51.266Z,7.80
2022-11-18T04:43:26.197Z,7.80
2022-11-18T04:45:54.592Z,7.70
2022-11-18T04:48:29.062Z,7.70
2022-11-18T04:51:03.769Z,7.70
2022-11-18T04:53:46.117Z,7.70
2022-11-18T04:56:14.555Z,7.70
2022-11-18T04:58:43.034Z,7.60
2022-11-18T05:01:18.272Z,7.60
2022-11-18T05:03:50.511Z,7.60
2022-11-18T05:06:27.207Z,7.60
2022-11-18T05:08:55.779Z,7.60
2022-11-18T05:11:48.003Z,7.60
2022-11-18T05:14:16.304Z,7.50
2022-11-18T05:16:45.163Z,7.50
2022-11-18T05:19:21.132Z,7.50
2022-11-18T05:21:51.849Z,7.50
2022-11-18T05:24:27.033Z,7.50
2022-11-18T05:26:56.354Z,7.50
2022-11-18T05:29:31.054Z,7.50
2022-11-18T05:31:59.466Z,7.50
2022-11-18T05:34:34.255Z,7.50
2022-11-18T05:37:05.280Z,7.50
2022-11-18T05:39:41.041Z,7.50
2022-11-18T05:42:27.021Z,7.50
2022-11-18T05:45:02.168Z,7.40
2022-11-18T05:47:50.463Z,7.40
2022-11-18T05:50:25.087Z,7.40
2022-11-18T05:53:15.034Z,7.40
2022-11-18T05:55:57.133Z,7.40
2022-11-18T05:58:32.130Z,7.40
2022-11-18T06:01:08.384Z,7.40
2022-11-18T06:03:46.240Z,7.40
2022-11-18T06:06:17.159Z,7.40
2022-11-18T06:08:58.049Z,7.30
2022-11-18T06:11:26.590Z,7.30
2022-11-18T06:14:07.150Z,7.30
2022-11-18T06:16:40.823Z,7.30
2022-11-18T06:19:16.511Z,7.30
2022-11-18T06:21:45.529Z,7.20
2022-11-18T06:24:23.127Z,7.30
2022-11-18T06:26:52.081Z,7.30
2022-11-18T06:29:28.400Z,7.20
2022-11-18T06:31:56.742Z,7.20
2022-11-18T06:34:31.119Z,7.20
2022-11-18T06:36:59.361Z,7.20
2022-11-18T06:39:36.112Z,7.20
2022-11-18T06:42:04.381Z,7.20
2022-11-18T06:44:38.167Z,7.30
2022-11-18T06:47:07.255Z,7.20
2022-11-18T06:49:42.338Z,7.20
2022-11-18T06:52:30.104Z,7.20
2022-11-18T06:55:07.174Z,7.20
2022-11-18T06:57:36.244Z,7.20
2022-11-18T07:00:13.348Z,7.20
2022-11-18T07:02:41.764Z,7.20
2022-11-18T07:05:17.287Z,7.20
2022-11-18T07:07:46.432Z,7.20
2022-11-18T07:10:23.292Z,7.20
2022-11-18T07:12:51.759Z,7.20
2022-11-18T07:15:27.159Z,7.20
2022-11-18T07:17:55.382Z,7.10
2022-11-18T07:20:30.146Z,7.10
2022-11-18T07:22:58.804Z,7.10
2022-11-18T07:25:35.187Z,7.10
2022-11-18T07:28:03.779Z,7.10
2022-11-18T07:30:38.401Z,7.10
2022-11-18T07:33:06.580Z,7.10
2022-11-18T07:35:41.235Z,7.10
2022-11-18T07:38:09.605Z,7.10
2022-11-18T07:40:46.206Z,7.10
2022-11-18T07:43:15.223Z,7.20
2022-11-18T07:45:50.220Z,7.20
2022-11-18T07:48:18.719Z,7.20
2022-11-18T07:50:54.096Z,7.20
2022-11-18T07:53:31.831Z,7.30
2022-11-18T07:56:08.281Z,7.30
2022-11-18T07:58:37.209Z,7.30
2022-11-18T08:01:16.303Z,7.30
2022-11-18T08:03:45.980Z,7.40
2022-11-18T08:06:22.139Z,7.40
2022-11-18T08:08:51.259Z,7.40
2022-11-18T08:11:28.347Z,7.50
2022-11-18T08:13:56.777Z,7.50
2022-11-18T08:16:33.166Z,7.60
2022-11-18T08:19:02.056Z,7.70
2022-11-18T08:21:37.362Z,7.80
2022-11-18T08:24:06.218Z,7.90
2022-11-18T08:26:43.373Z,7.90
2022-11-18T08:29:11.955Z,8.00
2022-11-18T08:31:47.332Z,8.10
2022-11-18T08:34:17.273Z,8.10
2022-11-18T08:36:52.225Z,8.20
2022-11-18T08:39:20.684Z,8.20
2022-11-18T08:41:57.408Z,8.30
2022-11-18T08:44:25.665Z,8.40
2022-11-18T08:47:00.240Z,8.50
2022-11-18T08:49:32.410Z,8.60
2022-11-18T08:52:07.246Z,8.60
2022-11-18T08:54:42.969Z,8.70
2022-11-18T08:57:19.353Z,8.70
2022-11-18T08:59:47.812Z,8.80
2022-11-18T09:02:24.295Z,8.80
2022-11-18T09:04:53.316Z,8.80
2022-11-18T09:07:29.372Z,8.90
2022-11-18T09:09:57.652Z,8.90
2022-11-18T09:12:34.289Z,8.90
2022-11-18T09:15:18.670Z,8.90
2022-11-18T09:17:54.414Z,8.90
2022-11-18T09:20:22.957Z,8.90
2022-11-18T09:22:58.315Z,8.90
2022-11-18T09:25:26.490Z,9.00
2022-11-18T09:28:03.261Z,9.00
2022-11-18T09:30:31.721Z,9.00
2022-11-18T09:33:06.234Z,9.00
2022-11-18T09:35:35.554Z,9.00
2022-11-18T09:38:11.645Z,9.10
2022-11-18T09:40:46.349Z,9.10
2022-11-18T09:43:31.435Z,9.20
2022-11-18T09:46:08.251Z,9.20
2022-11-18T09:49:03.421Z,9.20
2022-11-18T09:52:02.190Z,9.20
2022-11-18T09:54:45.456Z,9.30
2022-11-18T09:57:17.113Z,9.30
2022-11-18T09:59:54.295Z,9.30
2022-11-18T10:02:37.357Z,9.40
2022-11-18T10:05:17.291Z,9.40
2022-11-18T10:08:01.259Z,9.40
2022-11-18T10:10:39.531Z,9.50
2022-11-18T10:13:25.359Z,9.50
2022-11-18T10:16:07.553Z,9.50
2022-11-18T10:19:04.824Z,9.40
2022-11-18T10:21:46.903Z,9.50
2022-11-18T10:24:27.579Z,9.50
2022-11-18T10:26:58.292Z,9.60
2022-11-18T10:29:33.341Z,9.60
2022-11-18T10:32:05.574Z,9.70
2022-11-18T10:34:42.293Z,9.70
2022-11-18T10:37:38.783Z,9.80
2022-11-18T10:40:32.379Z,9.90
2022-11-18T10:43:00.727Z,10.00
2022-11-18T10:45:37.482Z,10.00
2022-11-18T10:48:18.628Z,10.10
2022-11-18T10:50:56.146Z,10.20
2022-11-18T10:53:41.995Z,10.30
2022-11-18T10:56:23.318Z,10.30
2022-11-18T10:58:52.886Z,10.30
2022-11-18T11:01:29.530Z,10.30
2022-11-18T11:04:04.752Z,10.30
2022-11-18T11:06:44.382Z,10.30
2022-11-18T11:09:26.864Z,10.40
2022-11-18T11:12:08.537Z,10.40
2022-11-18T11:14:39.363Z,10.40
2022-11-18T11:17:19.599Z,10.50
2022-11-18T11:19:53.414Z,10.60
2022-11-18T11:22:28.311Z,10.60
2022-11-18T11:24:58.273Z,10.60
2022-11-18T11:28:22.043Z,10.60
2022-11-18T11:30:46.470Z,10.60
2022-11-18T11:33:37.338Z,10.70
2022-11-18T11:36:29.136Z,10.70
2022-11-18T11:39:12.398Z,10.70
2022-11-18T11:41:49.192Z,10.70
2022-11-18T11:44:48.379Z,10.70
2022-11-18T11:47:47.966Z,10.80
2022-11-18T11:50:30.328Z,10.80
2022-11-18T11:53:22.583Z,10.80
2022-11-18T11:56:17.158Z,10.80
2022-11-18T11:59:05.984Z,10.90
2022-11-18T12:01:46.361Z,10.90
2022-11-18T12:04:30.561Z,10.90
2022-11-18T12:07:07.347Z,10.90
2022-11-18T12:09:51.990Z,10.90
2022-11-18T12:12:45.394Z,11.00
2022-11-18T12:15:25.862Z,10.90
2022-11-18T12:18:10.584Z,10.90
2022-11-18T12:20:41.832Z,10.80
2022-11-18T12:23:25.564Z,10.90
2022-11-18T12:26:04.894Z,10.90
2022-11-18T12:28:49.481Z,10.90
2022-11-18T12:31:35.374Z,10.90
2022-11-18T12:34:14.532Z,10.90
2022-11-18T12:36:43.105Z,10.90
2022-11-18T12:40:04.445Z,11.00
2022-11-18T12:43:03.267Z,11.00
2022-11-18T12:46:03.641Z,11.10
2022-11-18T12:48:41.643Z,11.20
2022-11-18T12:51:49.623Z,11.20
2022-11-18T12:54:41.493Z,11.20
2022-11-18T12:57:26.652Z,11.10
2022-11-18T12:59:57.518Z,11.10
2022-11-18T13:02:34.682Z,11.00
2022-11-18T13:05:09.618Z,11.00
2022-11-18T13:08:08.394Z,11.00
2022-11-18T13:10:40.835Z,11.00
2022-11-18T13:13:28.412Z,11.00
2022-11-18T13:16:37.833Z,11.00
2022-11-18T13:19:13.531Z,11.00
2022-11-18T13:21:59.218Z,10.90
2022-11-18T13:24:34.511Z,10.90
2022-11-18T13:27:02.791Z,10.90
2022-11-18T13:29:51.112Z,10.80
2022-11-18T13:32:27.137Z,10.80
2022-11-18T13:35:04.464Z,10.80
2022-11-18T13:37:34.225Z,10.70
2022-11-18T13:40:09.658Z,10.60
2022-11-18T13:42:46.197Z,10.50
2022-11-18T13:45:21.721Z,10.50
2022-11-18T13:47:54.005Z,10.40
2022-11-18T13:50:35.707Z,10.40
2022-11-18T13:53:38.489Z,10.30
2022-11-18T13:56:09.438Z,10.30
2022-11-18T13:59:28.775Z,10.20
2022-11-18T14:01:36.372Z,10.30
2022-11-18T14:04:16.483Z,10.20
2022-11-18T14:06:44.689Z,10.00
2022-11-18T14:09:30.502Z,9.70
2022-11-18T14:12:01.058Z,9.50
2022-11-18T14:14:37.495Z,9.60
2022-11-18T14:17:16.443Z,9.60
2022-11-18T14:19:54.503Z,9.70
2022-11-18T14:22:25.161Z,9.70
2022-11-18T14:25:04.508Z,9.80
2022-11-18T14:27:38.602Z,9.80
2022-11-18T14:30:46.470Z,9.70
2022-11-18T14:33:21.309Z,9.50
2022-11-18T14:36:00.717Z,9.30
2022-11-18T14:38:52.030Z,9.30
2022-11-18T14:41:47.526Z,9.40
2022-11-18T14:44:16.095Z,9.50
2022-11-18T14:46:53.701Z,9.50
2022-11-18T14:49:24.413Z,9.50
2022-11-18T14:52:01.499Z,9.60
2022-11-18T14:54:36.535Z,9.60
2022-11-18T14:57:12.685Z,9.60
2022-11-18T14:59:40.857Z,9.60
2022-11-18T15:02:22.644Z,9.60
2022-11-18T15:04:52.690Z,9.60
2022-11-18T15:07:28.596Z,9.50
2022-11-18T15:09:57.089Z,9.50
2022-11-18T15:12:31.526Z,9.50
2022-11-18T15:14:59.773Z,9.50
2022-11-18T15:17:35.719Z,9.50
2022-11-18T15:20:04.983Z,9.50
2022-11-18T15:22:41.554Z,9.50
2022-11-18T15:25:10.633Z,9.50
2022-11-18T15:27:45.583Z,9.50
2022-11-18T15:30:15.642Z,9.50
2022-11-18T15:32:51.557Z,9.40
2022-11-18T15:35:19.826Z,9.40
2022-11-18T15:37:56.680Z,9.40
2022-11-18T15:40:25.128Z,9.40
2022-11-18T15:42:59.501Z,9.40
2022-11-18T15:45:27.723Z,9.50
2022-11-18T15:48:02.614Z,9.50
2022-11-18T15:50:31.049Z,9.40
2022-11-18T15:53:07.511Z,9.30
2022-11-18T15:55:41.952Z,9.20
2022-11-18T15:58:17.286Z,9.20
2022-11-18T16:00:45.829Z,9.20
2022-11-18T16:03:20.582Z,9.20
2022-11-18T16:05:48.967Z,9.30
2022-11-18T16:08:25.604Z,9.30
2022-11-18T16:11:13.936Z,9.30
2022-11-18T16:13:48.760Z,9.30
2022-11-18T16:16:21.115Z,9.30
2022-11-18T16:18:55.722Z,9.30
2022-11-18T16:21:24.584Z,9.30
2022-11-18T16:24:02.548Z,9.30
2022-11-18T16:26:32.036Z,9.30
2022-11-18T16:29:07.681Z,9.30
2022-11-18T16:31:40.970Z,9.20
2022-11-18T16:34:16.606Z,9.20
2022-11-18T16:36:46.954Z,9.20
2022-11-18T16:39:24.601Z,9.20
2022-11-18T16:41:54.070Z,9.20
2022-11-18T16:44:29.582Z,9.20
2022-11-18T16:46:58.752Z,9.20
2022-11-18T16:49:34.685Z,9.20
2022-11-18T16:52:02.880Z,9.20
2022-11-18T16:54:46.734Z,9.20
2022-11-18T16:57:15.713Z,9.10
2022-11-18T16:59:50.577Z,9.10
2022-11-18T17:02:20.394Z,9.10
2022-11-18T17:04:55.673Z,9.10
2022-11-18T17:07:24.035Z,9.10
2022-11-18T17:10:00.612Z,9.10
2022-11-18T17:12:28.838Z,9.10
2022-11-18T17:15:03.812Z,9.10
2022-11-18T17:17:32.032Z,9.10
2022-11-18T17:20:07.243Z,9.10
2022-11-18T17:22:35.564Z,9.10
2022-11-18T17:25:12.630Z,9.10
2022-11-18T17:27:41.088Z,9.10
2022-11-18T17:30:16.692Z,9.20
2022-11-18T17:32:44.984Z,9.20
2022-11-18T17:35:19.642Z,9.20
2022-11-18T17:37:47.967Z,9.20
2022-11-18T17:40:24.808Z,9.10
2022-11-18T17:42:53.322Z,9.10
2022-11-18T17:45:28.674Z,9.10
2022-11-18T17:47:58.325Z,9.10
2022-11-18T17:50:32.673Z,9.10
2022-11-18T17:53:06.915Z,9.10
2022-11-18T17:55:50.764Z,9.10
2022-11-18T17:58:18.863Z,9.10
2022-11-18T18:00:53.893Z,9.10
2022-11-18T18:03:22.255Z,9.10
2022-11-18T18:05:56.635Z,9.10
2022-11-18T18:08:25.431Z,9.10
2022-11-18T18:11:01.726Z,9.10
2022-11-18T18:13:47.517Z,9.10
2022-11-18T18:16:22.878Z,9.10
2022-11-18T18:18:51.744Z,9.10
2022-11-18T18:21:26.708Z,9.20
2022-11-18T18:23:55.316Z,9.10
2022-11-18T18:26:32.149Z,9.10
2022-11-18T18:29:00.818Z,9.10
2022-11-18T18:31:36.837Z,9.10
2022-11-18T18:34:06.246Z,9.10
2022-11-18T18:36:41.692Z,9.10
2022-11-18T18:39:10.163Z,9.10
2022-11-18T18:41:46.735Z,9.10
2022-11-18T18:44:18.596Z,9.10
2022-11-18T18:46:52.755Z,9.00
2022-11-18T18:49:22.769Z,9.00
2022-11-18T18:51:57.908Z,9.00
2022-11-18T18:54:33.336Z,9.00
2022-11-18T18:57:15.760Z,8.90
2022-11-18T18:59:44.186Z,9.00
2022-11-18T19:02:20.676Z,9.00
2022-11-18T19:04:48.946Z,8.90
2022-11-18T19:07:23.839Z,9.00
2022-11-18T19:09:52.336Z,9.00
2022-11-18T19:12:45.696Z,8.90
2022-11-18T19:15:16.654Z,8.90
2022-11-18T19:17:51.844Z,9.00
2022-11-18T19:20:36.799Z,8.90
2022-11-18T19:23:13.917Z,8.90
2022-11-18T19:25:50.928Z,8.90
2022-11-18T19:28:27.921Z,8.90
2022-11-18T19:30:56.484Z,8.90
2022-11-18T19:33:32.022Z,9.00
2022-11-18T19:36:03.845Z,9.00
2022-11-18T19:38:41.771Z,9.00
2022-11-18T19:41:12.913Z,9.00
2022-11-18T19:43:48.975Z,9.00
2022-11-18T19:46:17.393Z,8.90
2022-11-18T19:48:55.835Z,8.90
2022-11-18T19:51:26.092Z,9.00
2022-11-18T19:54:07.957Z,9.00
2022-11-18T19:56:42.747Z,8.90
2022-11-18T19:59:21.312Z,9.00
2022-11-18T20:01:50.086Z,9.00
2022-11-18T20:04:25.003Z,8.90
2022-11-18T20:06:53.617Z,8.90
2022-11-18T20:09:28.727Z,8.90
2022-11-18T20:11:56.977Z,8.80
2022-11-18T20:14:32.956Z,8.80
2022-11-18T20:17:01.225Z,8.90
2022-11-18T20:19:35.856Z,8.90
2022-11-18T20:22:04.256Z,8.90
2022-11-18T20:24:38.958Z,8.90
2022-11-18T20:27:07.470Z,8.90
2022-11-18T20:29:43.790Z,8.90
2022-11-18T20:32:12.415Z,8.90
2022-11-18T20:34:47.976Z,8.90
2022-11-18T20:37:18.139Z,8.80
2022-11-18T20:39:52.886Z,8.80
2022-11-18T20:42:38.668Z,8.80
2022-11-18T20:45:16.984Z,8.80
2022-11-18T20:47:45.198Z,8.80
2022-11-18T20:50:19.888Z,8.80
2022-11-18T20:52:48.296Z,8.80
2022-11-18T20:55:29.844Z,8.80
2022-11-18T20:57:58.099Z,8.80
2022-11-18T21:00:34.837Z,8.80
2022-11-18T21:03:03.308Z,8.80
2022-11-18T21:05:38.098Z,8.80
2022-11-18T21:08:06.737Z,8.80
2022-11-18T21:10:42.033Z,8.80
2022-11-18T21:13:27.437Z,8.80
2022-11-18T21:16:03.889Z,8.80
2022-11-18T21:18:32.438Z,8.80
2022-11-18T21:21:24.793Z,8.90
2022-11-18T21:24:03.089Z,8.80
2022-11-18T21:26:33.199Z,8.80
2022-11-18T21:29:09.948Z,8.90
2022-11-18T21:31:40.346Z,8.80
2022-11-18T21:34:15.797Z,8.90
2022-11-18T21:36:48.072Z,8.90
2022-11-18T21:39:24.949Z,8.90
2022-11-18T21:41:56.669Z,8.90
2022-11-18T21:44:33.902Z,8.90
2022-11-18T21:47:03.637Z,8.90
2022-11-18T21:49:38.868Z,8.90
2022-11-18T21:52:07.267Z,8.90
2022-11-18T21:54:43.924Z,8.90
2022-11-18T21:57:19.254Z,8.90
2022-11-18T21:59:54.061Z,8.90
2022-11-18T22:02:23.892Z,8.80
2022-11-18T22:05:02.929Z,8.80
2022-11-18T22:07:31.321Z,8.80
2022-11-18T22:10:06.896Z,8.80
2022-11-18T22:12:35.783Z,8.80
2022-11-18T22:15:11.106Z,8.80
2022-11-18T22:17:41.016Z,8.80
2022-11-18T22:20:18.900Z,8.80
2022-11-18T22:22:53.959Z,8.80
2022-11-18T22:25:22.427Z,8.80
2022-11-18T22:27:56.880Z,8.80
2022-11-18T22:30:25.428Z,8.80
2022-11-18T22:33:01.884Z,8.80
2022-11-18T22:35:30.249Z,8.80
2022-11-18T22:38:04.975Z,8.80
2022-11-18T22:40:33.140Z,8.90
2022-11-18T22:43:06.982Z,8.80
2022-11-18T22:45:35.245Z,8.80
2022-11-18T22:48:05.310Z,8.80
2022-11-18T22:50:39.990Z,8.80
2022-11-18T22:53:08.427Z,8.80
2022-11-18T22:55:50.000Z,8.80
2022-11-18T22:58:18.562Z,8.80
2022-11-18T23:00:54.930Z,8.80
2022-11-18T23:03:24.802Z,8.80
2022-11-18T23:05:59.936Z,8.80
2022-11-18T23:08:29.541Z,8.80
2022-11-18T23:11:10.017Z,8.80
2022-11-18T23:13:56.106Z,8.80
2022-11-18T23:16:30.941Z,8.80
2022-11-18T23:19:02.693Z,8.80
2022-11-18T23:21:38.031Z,8.80
2022-11-18T23:24:07.814Z,8.80
2022-11-18T23:26:43.160Z,8.80
2022-11-18T23:29:12.934Z,8.80
2022-11-18T23:31:48.999Z,8.80
2022-11-18T23:34:19.757Z,8.80
2022-11-18T23:36:55.031Z,8.80
2022-11-18T23:39:23.244Z,8.80
2022-11-18T23:41:57.993Z,8.80
2022-11-18T23:44:39.992Z,8.80
2022-11-18T23:47:15.020Z,8.80
2022-11-18T23:49:44.686Z,8.80
2022-11-18T23:52:18.985Z,8.70
2022-11-18T23:55:08.046Z,8.80
2022-11-18T23:57:42.999Z,8.80
